Jessup, Indiana
Current Conditions -  °F | °C
As of 10:53 PM on Wednesday 26 Nov 2014 (Local Time) from KHUF Reporting Station
Overcast Overcast  
Wind Chill: 24°   Ceiling: 9000
Heat Index: 31°   Visibility: 10mi
Dew Point: 25°   Wind: 7mph
Humidity: 79%   Direction: 10°N
Pressure: 30.1"   Gusts: NA
Location:  39.6386°N, 87.3045°W
Report Text: KHUF 270353Z 01006KT 10SM OVC090 M01/M04 A3010 RMK AO2 SLP200 T10061039
Loading
Personal Weather Stations






























Interactive Weather Map New forecast layout! Learn more

10-Day Weather Forecast

Advertisements
Track Severe Weather on mobile